createdAt,value
2019-03-29T00:00:20.967Z,0.00
2019-03-29T00:01:20.962Z,0.00
2019-03-29T00:02:20.952Z,0.00
2019-03-29T00:03:20.941Z,0.00
2019-03-29T00:04:20.948Z,0.00
2019-03-29T00:05:20.931Z,0.00
2019-03-29T00:06:20.908Z,0.00
2019-03-29T00:07:20.898Z,0.00
2019-03-29T00:08:20.886Z,0.00
2019-03-29T00:09:20.881Z,0.00
2019-03-29T00:10:20.960Z,0.00
2019-03-29T00:11:20.851Z,0.00
2019-03-29T00:12:20.837Z,0.00
2019-03-29T00:13:20.833Z,0.00
2019-03-29T00:14:23.479Z,0.00
2019-03-29T00:15:20.836Z,0.00
2019-03-29T00:16:20.802Z,0.00
2019-03-29T00:17:20.787Z,0.00
2019-03-29T00:18:20.774Z,0.00
2019-03-29T00:19:20.768Z,0.00
2019-03-29T00:20:20.792Z,0.00
2019-03-29T00:21:20.748Z,0.00
2019-03-29T00:22:20.739Z,0.00
2019-03-29T00:23:20.725Z,0.00
2019-03-29T00:24:20.712Z,0.00
2019-03-29T00:25:20.710Z,0.00
2019-03-29T00:26:20.725Z,0.00
2019-03-29T00:27:20.694Z,0.00
2019-03-29T00:28:20.676Z,0.00
2019-03-29T00:29:20.656Z,0.00
2019-03-29T00:30:21.973Z,0.00
2019-03-29T00:31:20.662Z,0.00
2019-03-29T00:32:20.625Z,0.00
2019-03-29T00:33:20.621Z,0.00
2019-03-29T00:34:20.615Z,0.00
2019-03-29T00:35:20.595Z,0.00
2019-03-29T00:53:20.416Z,0.00
2019-03-29T00:54:20.391Z,0.00
2019-03-29T00:55:20.927Z,0.00
2019-03-29T00:56:20.370Z,0.00
2019-03-29T00:57:20.365Z,0.00
2019-03-29T00:58:21.153Z,0.00
2019-03-29T00:59:20.344Z,0.00
2019-03-29T01:00:20.352Z,0.00
2019-03-29T01:01:20.317Z,0.00
2019-03-29T01:02:20.308Z,0.00
2019-03-29T01:03:20.298Z,0.00
2019-03-29T01:04:20.306Z,0.00
2019-03-29T01:05:20.986Z,0.00
2019-03-29T01:06:20.269Z,0.00
2019-03-29T01:07:20.266Z,0.00
2019-03-29T01:08:20.242Z,0.00
2019-03-29T01:09:20.259Z,0.00
2019-03-29T01:10:20.238Z,0.00
2019-03-29T01:11:20.242Z,0.00
2019-03-29T01:12:20.207Z,0.00
2019-03-29T01:13:20.189Z,0.00
2019-03-29T01:14:20.183Z,0.00
2019-03-29T01:15:20.192Z,0.00
2019-03-29T01:16:20.174Z,0.00
2019-03-29T01:17:20.306Z,0.00
2019-03-29T01:18:20.141Z,0.00
2019-03-29T01:19:20.131Z,0.00
2019-03-29T01:20:20.175Z,0.00
2019-03-29T01:21:20.104Z,0.00
2019-03-29T01:22:20.111Z,0.00
2019-03-29T01:23:20.099Z,0.00
2019-03-29T01:24:20.128Z,0.00
2019-03-29T01:25:20.061Z,0.00
2019-03-29T01:26:20.075Z,0.00
2019-03-29T01:27:20.043Z,0.00
2019-03-29T01:28:20.046Z,0.00
2019-03-29T01:29:20.028Z,0.00
2019-03-29T01:30:20.052Z,0.00
2019-03-29T01:31:20.037Z,0.00
2019-03-29T01:32:19.997Z,0.00
2019-03-29T01:33:19.976Z,0.00
2019-03-29T01:34:19.968Z,0.00
2019-03-29T01:35:20.052Z,0.00
2019-03-29T01:36:19.982Z,0.00
2019-03-29T01:37:20.140Z,0.00
2019-03-29T01:38:22.061Z,0.00
2019-03-29T01:39:19.915Z,0.00
2019-03-29T01:40:19.908Z,0.00
2019-03-29T01:41:19.933Z,0.00
2019-03-29T01:42:19.890Z,0.00
2019-03-29T01:43:19.877Z,0.00
2019-03-29T01:44:19.880Z,0.00
2019-03-29T01:45:20.046Z,0.00
2019-03-29T01:46:19.846Z,0.00
2019-03-29T01:47:19.910Z,0.00
2019-03-29T01:48:19.819Z,0.00
2019-03-29T01:49:19.817Z,0.00
2019-03-29T01:50:19.815Z,0.00
2019-03-29T01:51:19.802Z,0.00
2019-03-29T01:52:20.030Z,0.00
2019-03-29T01:53:19.767Z,0.00
2019-03-29T01:54:19.757Z,0.00
2019-03-29T01:55:19.751Z,0.00
2019-03-29T01:56:19.739Z,0.00
2019-03-29T01:57:19.724Z,0.00
2019-03-29T01:58:19.741Z,0.00
2019-03-29T01:59:19.709Z,0.00
2019-03-29T02:00:19.693Z,0.00
2019-03-29T02:01:19.690Z,0.00
2019-03-29T02:02:20.260Z,0.00
2019-03-29T02:03:19.688Z,0.00
2019-03-29T02:04:19.696Z,0.00
2019-03-29T02:05:19.636Z,0.00
2019-03-29T02:06:19.889Z,0.00
2019-03-29T02:07:19.630Z,0.00
2019-03-29T02:08:19.628Z,0.00
2019-03-29T02:09:19.619Z,0.00
2019-03-29T02:10:19.608Z,0.00
2019-03-29T02:11:19.577Z,0.00
2019-03-29T02:12:19.563Z,0.00
2019-03-29T02:13:19.576Z,0.00
2019-03-29T02:14:19.561Z,0.00
2019-03-29T02:15:19.557Z,0.00
2019-03-29T02:16:19.551Z,0.00
2019-03-29T02:17:19.514Z,0.00
2019-03-29T02:18:19.544Z,0.00
2019-03-29T02:19:19.497Z,0.00
2019-03-29T02:20:19.481Z,0.00
2019-03-29T02:21:19.481Z,0.00
2019-03-29T02:22:19.471Z,0.00
2019-03-29T02:23:19.456Z,0.00
2019-03-29T02:24:19.463Z,0.00
2019-03-29T02:25:19.424Z,0.00
2019-03-29T02:26:19.437Z,0.00
2019-03-29T02:27:19.414Z,0.00
2019-03-29T02:28:19.410Z,0.00
2019-03-29T02:29:19.384Z,0.00
2019-03-29T02:30:19.378Z,0.00
2019-03-29T02:31:19.382Z,0.00
2019-03-29T02:32:19.354Z,0.00
2019-03-29T02:33:20.574Z,0.00
2019-03-29T02:34:19.359Z,0.00
2019-03-29T02:35:19.327Z,0.00
2019-03-29T02:36:19.349Z,0.00
2019-03-29T02:37:19.329Z,0.00
2019-03-29T02:38:19.290Z,0.00
2019-03-29T02:39:19.278Z,0.00
2019-03-29T02:40:19.266Z,0.00
2019-03-29T02:41:19.641Z,0.00
2019-03-29T02:42:19.251Z,0.00
2019-03-29T02:43:19.259Z,0.00
2019-03-29T02:44:19.232Z,0.00
2019-03-29T02:45:19.248Z,0.00
2019-03-29T02:46:19.222Z,0.00
2019-03-29T02:47:19.419Z,0.00
2019-03-29T02:48:19.208Z,0.00
2019-03-29T02:49:19.177Z,0.00
2019-03-29T02:50:19.166Z,0.00
2019-03-29T02:51:19.172Z,0.00
2019-03-29T02:52:19.144Z,0.00
2019-03-29T02:53:19.161Z,0.00
2019-03-29T02:54:19.126Z,0.00
2019-03-29T02:55:19.123Z,0.00
2019-03-29T02:56:19.136Z,0.00
2019-03-29T02:57:19.089Z,0.00
2019-03-29T02:58:19.075Z,0.00
2019-03-29T02:59:19.073Z,0.00
2019-03-29T03:00:19.065Z,0.00
2019-03-29T03:01:19.064Z,0.00
2019-03-29T03:02:19.034Z,0.00
2019-03-29T03:03:19.024Z,0.00
2019-03-29T03:04:19.015Z,0.00
2019-03-29T03:05:19.013Z,0.00
2019-03-29T03:06:19.037Z,0.00
2019-03-29T03:07:19.009Z,0.00
2019-03-29T03:08:19.020Z,0.00
2019-03-29T03:09:18.963Z,0.00
2019-03-29T03:10:18.952Z,0.00
2019-03-29T03:11:18.940Z,0.00
2019-03-29T03:12:18.947Z,0.00
2019-03-29T03:13:18.929Z,0.00
2019-03-29T03:14:18.913Z,0.00
2019-03-29T03:15:18.898Z,0.00
2019-03-29T03:16:18.890Z,0.00
2019-03-29T03:17:18.934Z,0.00
2019-03-29T03:18:18.870Z,0.00
2019-03-29T03:19:18.870Z,0.00
2019-03-29T03:20:18.857Z,0.00
2019-03-29T03:21:18.866Z,0.00
2019-03-29T03:22:18.836Z,0.00
2019-03-29T03:23:18.837Z,0.00
2019-03-29T03:24:18.804Z,0.00
2019-03-29T03:25:18.799Z,0.00
2019-03-29T03:26:18.786Z,0.00
2019-03-29T03:27:18.794Z,0.00
2019-03-29T03:28:18.771Z,0.00
2019-03-29T03:29:18.767Z,0.00
2019-03-29T03:30:18.741Z,0.00
2019-03-29T03:31:18.738Z,0.00
2019-03-29T03:32:18.749Z,0.00
2019-03-29T03:33:18.734Z,0.00
2019-03-29T03:34:18.694Z,0.00
2019-03-29T03:35:18.709Z,0.00
2019-03-29T03:36:18.688Z,0.00
2019-03-29T03:37:18.698Z,0.00
2019-03-29T03:38:18.671Z,0.00
2019-03-29T03:39:31.682Z,0.00
2019-03-29T03:40:19.640Z,0.00
2019-03-29T03:41:18.621Z,0.00
2019-03-29T03:42:18.752Z,0.00
2019-03-29T03:43:18.632Z,0.00
2019-03-29T03:44:18.588Z,0.00
2019-03-29T03:45:18.610Z,0.00
2019-03-29T03:46:18.573Z,0.00
2019-03-29T03:47:18.580Z,0.00
2019-03-29T03:48:18.581Z,0.00
2019-03-29T03:49:18.542Z,0.00
2019-03-29T03:50:18.534Z,0.00
2019-03-29T03:51:18.521Z,0.00
2019-03-29T03:52:18.513Z,0.00
2019-03-29T03:53:18.510Z,0.00
2019-03-29T03:54:18.509Z,0.00
2019-03-29T03:55:18.473Z,0.00
2019-03-29T03:56:18.459Z,0.00
2019-03-29T03:57:18.459Z,0.00
2019-03-29T03:58:18.469Z,0.00
2019-03-29T03:59:18.439Z,0.00
2019-03-29T04:00:18.448Z,0.00
2019-03-29T04:01:18.421Z,0.00
2019-03-29T04:02:18.397Z,0.00
2019-03-29T04:03:18.415Z,0.00
2019-03-29T04:04:18.388Z,0.00
2019-03-29T04:05:18.392Z,0.00
2019-03-29T04:06:18.360Z,0.00
2019-03-29T04:07:18.342Z,0.00
2019-03-29T04:08:18.334Z,0.00
2019-03-29T04:09:18.365Z,0.00
2019-03-29T04:10:18.326Z,0.00
2019-03-29T04:11:18.307Z,0.00
2019-03-29T04:12:18.326Z,0.00
2019-03-29T04:13:18.281Z,0.00
2019-03-29T04:14:18.275Z,0.00
2019-03-29T04:15:18.257Z,0.00
2019-03-29T04:16:18.248Z,0.00
2019-03-29T04:17:18.282Z,0.00
2019-03-29T04:18:18.235Z,0.00
2019-03-29T04:19:18.238Z,0.00
2019-03-29T04:20:18.211Z,0.00
2019-03-29T04:21:18.211Z,0.00
2019-03-29T04:22:18.230Z,0.00
2019-03-29T04:23:18.184Z,4.00
2019-03-29T04:24:18.173Z,4.00
2019-03-29T04:25:18.153Z,4.00
2019-03-29T04:26:18.147Z,0.00
2019-03-29T04:27:18.132Z,4.00
2019-03-29T04:28:18.138Z,4.00
2019-03-29T04:29:18.127Z,4.00
2019-03-29T04:30:18.105Z,8.00
2019-03-29T04:31:18.098Z,8.00
2019-03-29T04:32:18.097Z,12.00
2019-03-29T04:33:18.084Z,12.00
2019-03-29T04:34:18.056Z,16.00
2019-03-29T04:35:18.052Z,16.00
2019-03-29T04:36:18.049Z,20.00
2019-03-29T04:37:18.026Z,24.00
2019-03-29T04:38:18.039Z,28.00
2019-03-29T04:39:18.005Z,28.00
2019-03-29T04:40:17.997Z,36.00
2019-03-29T04:41:18.007Z,40.00
2019-03-29T04:42:17.978Z,44.00
2019-03-29T04:43:17.969Z,56.00
2019-03-29T04:44:17.987Z,64.00
2019-03-29T04:45:17.951Z,68.00
2019-03-29T04:46:17.929Z,80.00
2019-03-29T04:47:17.919Z,88.00
2019-03-29T04:48:17.911Z,104.00
2019-03-29T04:49:17.917Z,124.00
2019-03-29T04:50:18.012Z,136.00
2019-03-29T04:51:17.909Z,160.00
2019-03-29T04:52:17.867Z,172.00
2019-03-29T04:53:17.862Z,188.00
2019-03-29T04:54:17.850Z,208.00
2019-03-29T04:55:17.872Z,228.00
2019-03-29T04:56:17.835Z,248.00
2019-03-29T04:57:17.816Z,264.00
2019-03-29T04:58:17.799Z,276.00
2019-03-29T04:59:17.791Z,288.00
2019-03-29T05:00:17.782Z,320.00
2019-03-29T05:01:17.803Z,344.00
2019-03-29T05:02:17.771Z,368.00
2019-03-29T05:03:17.767Z,384.00
2019-03-29T05:04:17.746Z,404.00
2019-03-29T05:05:17.729Z,432.00
2019-03-29T05:06:17.735Z,464.00
2019-03-29T05:07:17.712Z,504.00
2019-03-29T05:08:17.711Z,544.00
2019-03-29T05:09:17.692Z,564.00
2019-03-29T05:10:21.650Z,544.00
2019-03-29T05:11:17.680Z,572.00
2019-03-29T05:12:17.674Z,668.00
2019-03-29T05:13:17.648Z,748.00
2019-03-29T05:14:17.645Z,792.00
2019-03-29T05:15:17.645Z,800.00
2019-03-29T05:16:17.616Z,772.00
2019-03-29T05:17:17.631Z,756.00
2019-03-29T05:18:17.591Z,764.00
2019-03-29T05:19:17.578Z,792.00
2019-03-29T05:20:17.575Z,864.00
2019-03-29T05:21:17.565Z,1000.00
2019-03-29T05:22:17.553Z,1188.00
2019-03-29T05:23:17.555Z,1288.00
2019-03-29T05:24:17.528Z,1296.00
2019-03-29T05:25:17.529Z,1296.00
2019-03-29T05:26:17.517Z,1296.00
2019-03-29T05:27:17.529Z,1272.00
2019-03-29T05:28:17.491Z,1324.00
2019-03-29T05:29:17.473Z,1500.00
2019-03-29T05:30:17.464Z,1604.00
2019-03-29T05:31:17.454Z,1572.00
2019-03-29T05:32:17.443Z,1504.00
2019-03-29T05:33:17.456Z,1580.00
2019-03-29T05:34:17.426Z,1660.00
2019-03-29T05:35:17.416Z,1644.00
2019-03-29T05:36:17.405Z,1632.00
2019-03-29T05:37:17.412Z,1616.00
2019-03-29T05:38:17.377Z,1724.00
2019-03-29T05:39:17.372Z,1784.00
2019-03-29T05:40:17.362Z,1924.00
2019-03-29T05:41:17.344Z,2216.00
2019-03-29T05:42:17.365Z,2420.00
2019-03-29T05:43:17.333Z,2484.00
2019-03-29T05:44:17.311Z,2504.00
2019-03-29T05:45:17.308Z,2524.00
2019-03-29T05:46:17.296Z,2556.00
2019-03-29T05:47:17.299Z,2588.00
2019-03-29T05:48:17.307Z,2612.00
2019-03-29T05:49:17.277Z,2656.00
2019-03-29T05:50:17.255Z,2728.00
2019-03-29T05:51:17.236Z,2800.00
2019-03-29T05:52:17.225Z,2860.00
2019-03-29T05:53:17.222Z,2880.00
2019-03-29T05:54:17.239Z,2964.00
2019-03-29T05:55:17.215Z,3044.00
2019-03-29T05:56:17.186Z,3080.00
2019-03-29T05:57:17.179Z,3084.00
2019-03-29T05:58:17.174Z,3144.00
2019-03-29T05:59:17.192Z,3208.00
2019-03-29T06:00:17.154Z,3292.00
2019-03-29T06:01:17.133Z,3372.00
2019-03-29T06:02:17.123Z,3440.00
2019-03-29T06:03:17.116Z,3560.00
2019-03-29T06:04:17.104Z,3680.00
2019-03-29T06:05:17.117Z,3720.00
2019-03-29T06:06:17.089Z,3624.00
2019-03-29T06:07:17.076Z,3472.00
2019-03-29T06:08:17.067Z,3416.00
2019-03-29T06:09:17.047Z,3368.00
2019-03-29T06:10:17.059Z,3396.00
2019-03-29T06:11:17.038Z,3468.00
2019-03-29T06:12:17.028Z,3528.00
2019-03-29T06:13:17.023Z,3580.00
2019-03-29T06:14:17.006Z,3648.00
2019-03-29T06:15:17.013Z,3784.00
2019-03-29T06:16:16.993Z,3848.00
2019-03-29T06:17:16.978Z,3828.00
2019-03-29T06:18:16.970Z,3968.00
2019-03-29T06:19:16.956Z,4120.00
2019-03-29T06:20:16.959Z,4320.00
2019-03-29T06:21:16.920Z,4508.00
2019-03-29T06:22:16.931Z,4628.00
2019-03-29T06:23:16.937Z,4672.00
2019-03-29T06:24:16.891Z,4652.00
2019-03-29T06:25:16.961Z,4500.00
2019-03-29T06:26:16.893Z,4452.00
2019-03-29T06:27:16.856Z,4536.00
2019-03-29T06:28:16.912Z,4656.00
2019-03-29T06:29:16.852Z,4864.00
2019-03-29T06:30:16.851Z,5068.00
2019-03-29T06:31:16.826Z,5228.00
2019-03-29T06:32:16.879Z,5364.00
2019-03-29T06:33:16.820Z,5436.00
2019-03-29T06:34:16.794Z,5432.00
2019-03-29T06:35:16.785Z,5448.00
2019-03-29T06:36:16.797Z,5436.00
2019-03-29T06:37:16.765Z,5468.00
2019-03-29T06:38:16.755Z,5480.00
2019-03-29T06:39:16.760Z,5488.00
2019-03-29T06:40:16.730Z,5460.00
2019-03-29T06:41:16.768Z,5472.00
2019-03-29T06:42:16.701Z,5704.00
2019-03-29T06:43:16.699Z,5932.00
2019-03-29T06:44:16.705Z,6104.00
2019-03-29T06:45:16.696Z,6220.00
2019-03-29T06:46:16.681Z,6288.00
2019-03-29T06:47:16.669Z,6324.00
2019-03-29T06:48:16.649Z,6276.00
2019-03-29T06:49:16.649Z,6112.00
2019-03-29T06:50:16.627Z,6056.00
2019-03-29T06:51:16.639Z,6240.00
2019-03-29T06:52:16.611Z,6432.00
2019-03-29T06:53:16.601Z,6512.00
2019-03-29T06:54:16.576Z,6788.00
2019-03-29T06:55:16.569Z,6920.00
2019-03-29T06:56:16.595Z,6880.00
2019-03-29T06:57:16.552Z,6852.00
2019-03-29T06:58:16.540Z,6980.00
2019-03-29T06:59:16.550Z,7268.00
2019-03-29T07:00:16.516Z,7460.00
2019-03-29T07:01:16.512Z,7464.00
2019-03-29T07:02:16.518Z,7260.00
2019-03-29T07:03:16.486Z,7028.00
2019-03-29T07:04:16.492Z,7064.00
2019-03-29T07:05:16.490Z,7176.00
2019-03-29T07:06:16.463Z,7248.00
2019-03-29T07:07:16.454Z,7212.00
2019-03-29T07:08:16.426Z,7232.00
2019-03-29T07:09:16.420Z,7220.00
2019-03-29T07:10:16.415Z,7052.00
2019-03-29T07:11:17.980Z,6912.00
2019-03-29T07:12:16.428Z,6764.00
2019-03-29T07:13:16.373Z,6688.00
2019-03-29T07:14:16.364Z,6636.00
2019-03-29T07:15:16.362Z,6536.00
2019-03-29T07:16:16.360Z,6540.00
2019-03-29T07:17:16.339Z,6828.00
2019-03-29T07:18:16.351Z,7104.00
2019-03-29T07:19:16.317Z,7344.00
2019-03-29T07:20:16.296Z,7524.00
2019-03-29T07:21:21.866Z,7588.00
2019-03-29T07:22:17.281Z,7536.00
2019-03-29T07:23:16.286Z,7464.00
2019-03-29T07:24:16.281Z,7408.00
2019-03-29T07:25:16.242Z,7388.00
2019-03-29T07:26:16.234Z,7436.00
2019-03-29T07:27:16.227Z,7476.00
2019-03-29T07:28:16.237Z,7424.00
2019-03-29T07:29:16.249Z,7416.00
2019-03-29T07:30:16.194Z,7408.00
2019-03-29T07:31:16.190Z,7388.00
2019-03-29T07:32:16.168Z,7376.00
2019-03-29T07:33:16.177Z,7364.00
2019-03-29T07:34:16.185Z,7480.00
2019-03-29T07:35:16.172Z,7488.00
2019-03-29T07:36:16.132Z,7508.00
2019-03-29T07:37:16.117Z,7568.00
2019-03-29T07:38:16.106Z,7520.00
2019-03-29T07:39:16.108Z,7476.00
2019-03-29T07:40:16.142Z,7540.00
2019-03-29T07:41:30.396Z,7696.00
2019-03-29T07:42:17.067Z,7808.00
2019-03-29T07:43:16.061Z,7812.00
2019-03-29T07:44:16.068Z,7884.00
2019-03-29T07:45:16.070Z,7980.00
2019-03-29T07:46:16.018Z,8076.00
2019-03-29T07:47:16.015Z,8164.00
2019-03-29T07:48:16.006Z,8244.00
2019-03-29T07:49:15.988Z,8296.00
2019-03-29T07:50:19.019Z,8360.00
2019-03-29T07:51:15.986Z,8364.00
2019-03-29T07:52:15.954Z,8344.00
2019-03-29T07:53:15.950Z,8316.00
2019-03-29T07:54:15.939Z,8300.00
2019-03-29T07:55:15.959Z,8668.00
2019-03-29T07:56:15.919Z,8952.00
2019-03-29T07:57:15.899Z,9140.00
2019-03-29T07:58:15.891Z,9404.00
2019-03-29T07:59:15.883Z,9604.00
2019-03-29T08:00:16.445Z,9688.00
2019-03-29T08:01:15.885Z,9640.00
2019-03-29T08:02:15.881Z,9640.00
2019-03-29T08:03:15.839Z,9628.00
2019-03-29T08:04:16.759Z,9432.00
2019-03-29T08:05:15.823Z,9216.00
2019-03-29T08:06:15.812Z,9088.00
2019-03-29T08:07:26.567Z,9064.00
2019-03-29T08:08:23.846Z,9348.00
2019-03-29T08:09:22.673Z,9720.00
2019-03-29T08:10:25.731Z,9960.00
2019-03-29T08:11:26.057Z,10172.00
2019-03-29T08:12:16.803Z,10288.00
2019-03-29T08:13:16.257Z,10324.00
2019-03-29T08:14:15.727Z,10328.00
2019-03-29T08:15:15.717Z,10380.00
2019-03-29T08:16:15.706Z,10440.00
2019-03-29T08:17:15.687Z,10416.00
2019-03-29T08:18:15.699Z,10348.00
2019-03-29T08:19:15.684Z,10448.00
2019-03-29T08:20:38.870Z,10504.00
2019-03-29T08:21:16.741Z,10636.00
2019-03-29T08:22:15.638Z,10788.00
2019-03-29T08:23:15.650Z,10948.00
2019-03-29T08:24:15.614Z,11308.00
2019-03-29T08:25:15.622Z,11600.00
2019-03-29T08:26:15.601Z,11740.00
2019-03-29T08:27:15.587Z,11700.00
2019-03-29T08:28:15.605Z,11356.00
2019-03-29T08:29:15.572Z,11064.00
2019-03-29T08:30:15.571Z,10928.00
2019-03-29T08:31:15.554Z,10920.00
2019-03-29T08:32:15.536Z,10988.00
2019-03-29T08:33:15.540Z,11136.00
2019-03-29T08:34:15.527Z,11344.00
2019-03-29T08:35:15.504Z,11572.00
2019-03-29T08:36:15.496Z,11764.00
2019-03-29T08:37:15.474Z,11852.00
2019-03-29T08:38:15.496Z,12100.00
2019-03-29T08:39:27.321Z,12304.00
2019-03-29T08:40:16.447Z,12392.00
2019-03-29T08:41:15.442Z,12300.00
2019-03-29T08:42:18.421Z,11960.00
2019-03-29T08:43:15.456Z,11544.00
2019-03-29T08:44:15.408Z,10988.00
2019-03-29T08:45:15.392Z,10652.00
2019-03-29T08:46:15.379Z,10728.00
2019-03-29T08:47:15.371Z,11020.00
2019-03-29T08:48:15.364Z,10948.00
2019-03-29T08:49:16.986Z,11108.00
2019-03-29T08:50:15.350Z,11164.00
2019-03-29T08:51:15.358Z,11232.00
2019-03-29T08:52:15.318Z,11368.00
2019-03-29T08:53:15.311Z,11324.00
2019-03-29T08:54:15.340Z,11508.00
2019-03-29T08:55:17.412Z,11792.00
2019-03-29T08:56:15.282Z,11860.00
2019-03-29T08:57:15.264Z,11844.00
2019-03-29T08:58:15.254Z,11848.00
2019-03-29T08:59:17.472Z,12248.00
2019-03-29T09:00:16.012Z,12332.00
2019-03-29T09:01:15.226Z,12216.00
2019-03-29T09:02:15.216Z,12012.00
2019-03-29T09:03:15.207Z,11828.00
2019-03-29T09:04:15.217Z,11676.00
2019-03-29T09:05:15.187Z,11456.00
2019-03-29T09:06:15.813Z,11040.00
2019-03-29T09:07:15.165Z,10804.00
2019-03-29T09:08:15.152Z,11428.00
2019-03-29T09:09:15.153Z,11736.00
2019-03-29T09:10:15.130Z,11396.00
2019-03-29T09:11:15.119Z,10688.00
2019-03-29T09:12:15.177Z,9908.00
2019-03-29T09:13:15.098Z,9584.00
2019-03-29T09:14:15.122Z,10208.00
2019-03-29T09:15:15.078Z,10648.00
2019-03-29T09:16:15.066Z,11568.00
2019-03-29T09:17:15.053Z,12380.00
2019-03-29T09:18:15.043Z,12544.00
2019-03-29T09:19:15.028Z,12556.00
2019-03-29T09:20:15.063Z,12312.00
2019-03-29T09:21:15.015Z,12052.00
2019-03-29T09:22:15.009Z,11676.00
2019-03-29T09:23:14.991Z,11496.00
2019-03-29T09:24:21.760Z,11408.00
2019-03-29T09:25:15.990Z,11408.00
2019-03-29T09:26:14.988Z,11344.00
2019-03-29T09:27:14.952Z,11060.00
2019-03-29T09:28:14.947Z,10756.00
2019-03-29T09:29:14.923Z,10556.00
2019-03-29T09:30:14.922Z,10400.00
2019-03-29T09:31:14.935Z,10332.00
2019-03-29T09:32:14.891Z,10320.00
2019-03-29T09:33:14.885Z,10324.00
2019-03-29T09:34:14.879Z,10324.00
2019-03-29T09:35:14.866Z,10276.00
2019-03-29T09:36:14.879Z,10188.00
2019-03-29T09:37:14.864Z,10028.00
2019-03-29T09:38:14.827Z,9716.00
2019-03-29T09:39:14.827Z,9428.00
2019-03-29T09:40:14.825Z,9008.00
2019-03-29T09:41:14.817Z,9008.00
2019-03-29T09:42:28.107Z,8948.00
2019-03-29T09:43:15.773Z,8912.00
2019-03-29T09:44:14.768Z,9032.00
2019-03-29T09:45:14.768Z,9036.00
2019-03-29T09:46:14.771Z,8648.00
2019-03-29T09:47:14.744Z,7968.00
2019-03-29T09:48:14.730Z,7308.00
2019-03-29T09:49:14.714Z,7232.00
2019-03-29T09:50:14.706Z,8152.00
2019-03-29T09:51:14.715Z,8952.00
2019-03-29T09:52:14.677Z,9348.00
2019-03-29T09:53:14.677Z,9540.00
2019-03-29T09:54:14.683Z,9432.00
2019-03-29T09:55:14.650Z,9072.00
2019-03-29T09:56:14.641Z,8508.00
2019-03-29T09:57:15.562Z,8028.00
2019-03-29T09:58:16.553Z,8344.00
2019-03-29T09:59:16.433Z,9580.00
2019-03-29T10:00:22.425Z,10800.00
2019-03-29T10:01:15.650Z,11268.00
2019-03-29T10:02:14.582Z,11160.00
2019-03-29T10:03:14.560Z,11060.00
2019-03-29T10:04:14.554Z,10940.00
2019-03-29T10:05:14.550Z,10936.00
2019-03-29T10:06:15.416Z,10992.00
2019-03-29T10:07:15.370Z,11120.00
2019-03-29T10:08:14.511Z,11376.00
2019-03-29T10:09:14.526Z,11744.00
2019-03-29T10:10:14.486Z,12108.00
2019-03-29T10:11:14.873Z,12248.00
2019-03-29T10:12:14.470Z,12164.00
2019-03-29T10:13:14.481Z,12024.00
2019-03-29T10:14:14.461Z,12424.00
2019-03-29T10:15:14.459Z,12864.00
2019-03-29T10:16:14.421Z,13096.00
2019-03-29T10:17:14.424Z,13328.00
2019-03-29T10:18:14.406Z,13556.00
2019-03-29T10:19:14.415Z,13576.00
2019-03-29T10:20:14.409Z,13504.00
2019-03-29T10:21:17.019Z,13452.00
2019-03-29T10:22:14.389Z,13440.00
2019-03-29T10:23:14.352Z,13424.00
2019-03-29T10:24:14.341Z,13220.00
2019-03-29T10:25:19.783Z,12860.00
2019-03-29T10:26:15.323Z,12560.00
2019-03-29T10:27:14.330Z,12476.00
2019-03-29T10:28:14.294Z,12636.00
2019-03-29T10:29:14.291Z,12760.00
2019-03-29T10:30:14.308Z,12696.00
2019-03-29T10:31:14.273Z,12868.00
2019-03-29T10:32:14.257Z,12960.00
2019-03-29T10:33:14.248Z,12744.00
2019-03-29T10:34:14.254Z,13120.00
2019-03-29T10:35:14.238Z,13824.00
2019-03-29T10:36:14.224Z,14072.00
2019-03-29T10:37:14.203Z,14236.00
2019-03-29T10:38:17.813Z,14212.00
2019-03-29T10:39:14.215Z,14408.00
2019-03-29T10:40:14.182Z,14588.00
2019-03-29T10:41:14.162Z,14660.00
2019-03-29T10:42:14.163Z,14552.00
2019-03-29T10:43:14.142Z,14740.00
2019-03-29T10:44:14.134Z,15112.00
2019-03-29T10:45:14.137Z,15452.00
2019-03-29T10:46:14.121Z,15392.00
2019-03-29T10:47:14.093Z,15392.00
2019-03-29T10:48:14.087Z,15724.00
2019-03-29T10:49:14.077Z,16516.00
2019-03-29T10:50:14.119Z,17288.00
2019-03-29T10:51:14.057Z,18144.00
2019-03-29T10:52:14.060Z,18912.00
2019-03-29T10:53:14.029Z,19680.00
2019-03-29T10:54:14.025Z,20224.00
2019-03-29T10:55:14.015Z,20160.00
2019-03-29T10:56:14.072Z,20320.00
2019-03-29T10:57:13.998Z,20608.00
2019-03-29T10:58:13.983Z,20800.00
2019-03-29T10:59:26.810Z,20800.00
2019-03-29T11:00:14.975Z,21312.00
2019-03-29T11:01:13.969Z,22880.00
2019-03-29T11:02:13.948Z,24192.00
2019-03-29T11:03:13.967Z,25216.00
2019-03-29T11:04:13.925Z,26016.00
2019-03-29T11:05:13.903Z,27264.00
2019-03-29T11:06:13.890Z,28640.00
2019-03-29T11:07:13.883Z,28480.00
2019-03-29T11:08:13.871Z,26848.00
2019-03-29T11:09:13.891Z,25376.00
2019-03-29T11:10:13.856Z,23616.00
2019-03-29T11:11:13.847Z,21728.00
2019-03-29T11:12:13.834Z,19808.00
2019-03-29T11:13:14.629Z,17920.00
2019-03-29T11:14:13.860Z,16140.00
2019-03-29T11:15:13.803Z,15348.00
2019-03-29T11:16:13.828Z,14700.00
2019-03-29T11:17:13.786Z,13820.00
2019-03-29T11:18:13.763Z,12848.00
2019-03-29T11:19:13.754Z,12276.00
2019-03-29T11:20:13.767Z,11912.00
2019-03-29T11:21:13.763Z,11724.00
2019-03-29T11:22:13.730Z,11468.00
2019-03-29T11:23:13.732Z,11332.00
2019-03-29T11:24:13.741Z,11212.00
2019-03-29T11:25:13.708Z,10916.00
2019-03-29T11:26:13.679Z,10568.00
2019-03-29T11:27:13.674Z,10348.00
2019-03-29T11:28:13.661Z,10260.00
2019-03-29T11:29:13.664Z,10084.00
2019-03-29T11:30:13.671Z,10052.00
2019-03-29T11:31:13.625Z,10332.00
2019-03-29T11:32:13.623Z,10624.00
2019-03-29T11:33:13.613Z,10648.00
2019-03-29T11:34:13.635Z,10444.00
2019-03-29T11:35:13.594Z,10304.00
2019-03-29T11:36:13.601Z,10360.00
2019-03-29T11:37:13.571Z,10632.00
2019-03-29T11:38:13.559Z,11004.00
2019-03-29T11:39:13.562Z,11212.00
2019-03-29T11:40:13.536Z,11100.00
2019-03-29T11:41:13.547Z,11028.00
2019-03-29T11:42:13.518Z,11336.00
2019-03-29T11:43:25.937Z,11896.00
2019-03-29T11:44:14.506Z,12716.00
2019-03-29T11:45:13.498Z,13600.00
2019-03-29T11:46:13.494Z,14332.00
2019-03-29T11:47:13.476Z,14788.00
2019-03-29T11:48:13.452Z,14748.00
2019-03-29T11:49:13.440Z,14116.00
2019-03-29T11:50:13.428Z,13484.00
2019-03-29T11:51:19.761Z,13204.00
2019-03-29T11:52:14.407Z,12892.00
2019-03-29T11:53:13.455Z,12464.00
2019-03-29T11:54:13.389Z,12052.00
2019-03-29T11:55:13.404Z,11668.00
2019-03-29T11:56:13.396Z,11308.00
2019-03-29T11:57:13.352Z,11048.00
2019-03-29T11:58:13.348Z,10872.00
2019-03-29T11:59:13.330Z,10740.00
2019-03-29T12:00:13.323Z,10788.00
2019-03-29T12:01:13.315Z,10940.00
2019-03-29T12:02:13.327Z,11088.00
2019-03-29T12:03:13.289Z,11376.00
2019-03-29T12:04:13.281Z,11660.00
2019-03-29T12:05:13.277Z,11940.00
2019-03-29T12:06:13.263Z,12432.00
2019-03-29T12:07:13.299Z,13080.00
2019-03-29T12:08:13.878Z,13584.00
2019-03-29T12:09:13.225Z,14196.00
2019-03-29T12:10:13.219Z,14840.00
2019-03-29T12:11:13.203Z,15724.00
2019-03-29T12:12:13.191Z,16980.00
2019-03-29T12:13:13.222Z,18592.00
2019-03-29T12:14:13.178Z,20160.00
2019-03-29T12:15:13.179Z,20832.00
2019-03-29T12:16:13.160Z,21376.00
2019-03-29T12:17:13.156Z,20768.00
2019-03-29T12:18:13.148Z,21344.00
2019-03-29T12:19:13.126Z,20512.00
2019-03-29T12:20:13.114Z,20000.00
2019-03-29T12:21:13.097Z,18656.00
2019-03-29T12:22:13.089Z,17348.00
2019-03-29T12:23:13.124Z,16488.00
2019-03-29T12:24:13.071Z,15696.00
2019-03-29T12:25:13.062Z,15176.00
2019-03-29T12:26:13.055Z,15012.00
2019-03-29T12:27:13.044Z,14872.00
2019-03-29T12:28:13.033Z,14592.00
2019-03-29T12:29:13.036Z,14244.00
2019-03-29T12:30:23.657Z,13692.00
2019-03-29T12:31:13.993Z,13000.00
2019-03-29T12:32:12.984Z,12692.00
2019-03-29T12:33:12.997Z,12820.00
2019-03-29T12:34:12.973Z,13068.00
2019-03-29T12:35:12.950Z,13068.00
2019-03-29T12:36:12.958Z,12776.00
2019-03-29T12:37:12.939Z,12240.00
2019-03-29T12:38:12.935Z,11628.00
2019-03-29T12:39:12.939Z,10856.00
2019-03-29T12:40:12.912Z,10192.00